sensor_id;sensor_type;location;lat;lon;timestamp;P1;durP1;ratioP1;P2;durP2;ratioP2
16640;SDS011;8434;47.990;7.880;2022-09-16T00:00:06;5.43;;;4.10;;
16640;SDS011;8434;47.990;7.880;2022-09-16T00:02:53;4.07;;;3.67;;
16640;SDS011;8434;47.990;7.880;2022-09-16T00:05:41;7.27;;;4.00;;
16640;SDS011;8434;47.990;7.880;2022-09-16T00:08:26;4.73;;;3.57;;
16640;SDS011;8434;47.990;7.880;2022-09-16T00:11:13;5.70;;;3.80;;
16640;SDS011;8434;47.990;7.880;2022-09-16T00:13:58;6.60;;;3.57;;
16640;SDS011;8434;47.990;7.880;2022-09-16T00:16:43;6.10;;;3.83;;
16640;SDS011;8434;47.990;7.880;2022-09-16T00:19:27;4.37;;;3.90;;
16640;SDS011;8434;47.990;7.880;2022-09-16T00:22:12;5.40;;;4.43;;
16640;SDS011;8434;47.990;7.880;2022-09-16T00:24:57;4.27;;;3.87;;
16640;SDS011;8434;47.990;7.880;2022-09-16T00:27:46;7.80;;;4.73;;
16640;SDS011;8434;47.990;7.880;2022-09-16T00:30:30;7.20;;;3.90;;
16640;SDS011;8434;47.990;7.880;2022-09-16T00:33:16;6.97;;;5.10;;
16640;SDS011;8434;47.990;7.880;2022-09-16T00:36:08;7.87;;;4.20;;
16640;SDS011;8434;47.990;7.880;2022-09-16T00:38:53;6.20;;;3.73;;
16640;SDS011;8434;47.990;7.880;2022-09-16T00:41:38;9.00;;;3.63;;
16640;SDS011;8434;47.990;7.880;2022-09-16T00:47:29;9.30;;;4.53;;
16640;SDS011;8434;47.990;7.880;2022-09-16T00:50:16;4.97;;;4.30;;
16640;SDS011;8434;47.990;7.880;2022-09-16T00:53:02;5.57;;;4.17;;
16640;SDS011;8434;47.990;7.880;2022-09-16T00:55:47;5.23;;;4.30;;
16640;SDS011;8434;47.990;7.880;2022-09-16T00:58:33;6.30;;;4.67;;
16640;SDS011;8434;47.990;7.880;2022-09-16T01:01:20;4.40;;;4.00;;
16640;SDS011;8434;47.990;7.880;2022-09-16T01:04:07;6.27;;;4.00;;
16640;SDS011;8434;47.990;7.880;2022-09-16T01:06:53;7.50;;;3.83;;
16640;SDS011;8434;47.990;7.880;2022-09-16T01:09:40;7.27;;;4.30;;
16640;SDS011;8434;47.990;7.880;2022-09-16T01:12:26;6.40;;;4.07;;
16640;SDS011;8434;47.990;7.880;2022-09-16T01:15:11;9.17;;;4.63;;
16640;SDS011;8434;47.990;7.880;2022-09-16T01:18:01;4.60;;;3.73;;
16640;SDS011;8434;47.990;7.880;2022-09-16T01:27:13;6.73;;;4.70;;
16640;SDS011;8434;47.990;7.880;2022-09-16T01:33:04;6.90;;;4.33;;
16640;SDS011;8434;47.990;7.880;2022-09-16T01:36:00;8.00;;;4.63;;
16640;SDS011;8434;47.990;7.880;2022-09-16T01:38:52;6.73;;;4.30;;
16640;SDS011;8434;47.990;7.880;2022-09-16T01:41:42;6.40;;;4.00;;
16640;SDS011;8434;47.990;7.880;2022-09-16T01:44:30;4.80;;;4.30;;
16640;SDS011;8434;47.990;7.880;2022-09-16T01:47:17;4.53;;;4.13;;
16640;SDS011;8434;47.990;7.880;2022-09-16T01:50:06;4.70;;;4.13;;
16640;SDS011;8434;47.990;7.880;2022-09-16T01:52:56;7.43;;;4.40;;
16640;SDS011;8434;47.990;7.880;2022-09-16T01:55:44;9.90;;;4.50;;
16640;SDS011;8434;47.990;7.880;2022-09-16T01:58:32;6.87;;;4.87;;
16640;SDS011;8434;47.990;7.880;2022-09-16T02:01:21;6.60;;;4.17;;
16640;SDS011;8434;47.990;7.880;2022-09-16T02:04:08;4.60;;;4.20;;
16640;SDS011;8434;47.990;7.880;2022-09-16T02:06:55;6.20;;;4.40;;
16640;SDS011;8434;47.990;7.880;2022-09-16T02:09:42;5.17;;;4.57;;
16640;SDS011;8434;47.990;7.880;2022-09-16T02:12:30;6.53;;;3.53;;
16640;SDS011;8434;47.990;7.880;2022-09-16T02:15:16;4.43;;;3.93;;
16640;SDS011;8434;47.990;7.880;2022-09-16T02:18:07;4.80;;;4.20;;
16640;SDS011;8434;47.990;7.880;2022-09-16T02:20:53;7.97;;;4.03;;
16640;SDS011;8434;47.990;7.880;2022-09-16T02:23:41;4.83;;;4.43;;
16640;SDS011;8434;47.990;7.880;2022-09-16T02:26:31;9.23;;;4.23;;
16640;SDS011;8434;47.990;7.880;2022-09-16T02:29:18;6.10;;;4.80;;
16640;SDS011;8434;47.990;7.880;2022-09-16T02:32:05;8.03;;;4.60;;
16640;SDS011;8434;47.990;7.880;2022-09-16T02:34:52;7.00;;;4.40;;
16640;SDS011;8434;47.990;7.880;2022-09-16T02:37:38;6.40;;;4.43;;
16640;SDS011;8434;47.990;7.880;2022-09-16T02:40:26;7.20;;;4.67;;
16640;SDS011;8434;47.990;7.880;2022-09-16T02:43:13;5.50;;;4.93;;
16640;SDS011;8434;47.990;7.880;2022-09-16T02:46:00;5.43;;;4.60;;
16640;SDS011;8434;47.990;7.880;2022-09-16T02:48:52;8.97;;;4.63;;
16640;SDS011;8434;47.990;7.880;2022-09-16T02:51:40;6.60;;;4.70;;
16640;SDS011;8434;47.990;7.880;2022-09-16T02:54:30;7.83;;;4.27;;
16640;SDS011;8434;47.990;7.880;2022-09-16T02:57:19;7.73;;;4.80;;
16640;SDS011;8434;47.990;7.880;2022-09-16T03:00:04;5.90;;;4.20;;
16640;SDS011;8434;47.990;7.880;2022-09-16T03:02:50;8.17;;;4.37;;
16640;SDS011;8434;47.990;7.880;2022-09-16T03:05:39;5.80;;;4.07;;
16640;SDS011;8434;47.990;7.880;2022-09-16T03:08:37;4.43;;;4.03;;
16640;SDS011;8434;47.990;7.880;2022-09-16T03:17:36;5.90;;;3.93;;
16640;SDS011;8434;47.990;7.880;2022-09-16T03:20:25;5.87;;;4.27;;
16640;SDS011;8434;47.990;7.880;2022-09-16T03:23:16;4.97;;;4.47;;
16640;SDS011;8434;47.990;7.880;2022-09-16T03:26:04;5.13;;;4.40;;
16640;SDS011;8434;47.990;7.880;2022-09-16T03:28:54;5.13;;;4.63;;
16640;SDS011;8434;47.990;7.880;2022-09-16T03:31:47;5.10;;;4.60;;
16640;SDS011;8434;47.990;7.880;2022-09-16T03:34:38;6.23;;;4.67;;
16640;SDS011;8434;47.990;7.880;2022-09-16T03:37:26;6.70;;;4.43;;
16640;SDS011;8434;47.990;7.880;2022-09-16T03:40:15;9.80;;;6.30;;
16640;SDS011;8434;47.990;7.880;2022-09-16T03:43:08;5.23;;;4.77;;
16640;SDS011;8434;47.990;7.880;2022-09-16T03:45:53;9.57;;;4.67;;
16640;SDS011;8434;47.990;7.880;2022-09-16T03:48:38;6.47;;;5.47;;
16640;SDS011;8434;47.990;7.880;2022-09-16T03:51:24;13.43;;;5.70;;
16640;SDS011;8434;47.990;7.880;2022-09-16T03:54:10;10.10;;;6.20;;
16640;SDS011;8434;47.990;7.880;2022-09-16T03:56:54;8.20;;;5.63;;
16640;SDS011;8434;47.990;7.880;2022-09-16T03:59:39;10.20;;;6.23;;
16640;SDS011;8434;47.990;7.880;2022-09-16T04:02:24;7.63;;;5.80;;
16640;SDS011;8434;47.990;7.880;2022-09-16T04:05:09;8.23;;;5.87;;
16640;SDS011;8434;47.990;7.880;2022-09-16T04:07:55;7.23;;;6.40;;
16640;SDS011;8434;47.990;7.880;2022-09-16T04:10:40;9.53;;;6.13;;
16640;SDS011;8434;47.990;7.880;2022-09-16T04:13:27;9.37;;;6.07;;
16640;SDS011;8434;47.990;7.880;2022-09-16T04:16:17;7.87;;;5.97;;
16640;SDS011;8434;47.990;7.880;2022-09-16T04:19:02;8.10;;;6.17;;
16640;SDS011;8434;47.990;7.880;2022-09-16T04:21:47;10.07;;;6.60;;
16640;SDS011;8434;47.990;7.880;2022-09-16T04:24:36;9.23;;;6.10;;
16640;SDS011;8434;47.990;7.880;2022-09-16T04:27:21;9.20;;;6.07;;
16640;SDS011;8434;47.990;7.880;2022-09-16T04:30:07;7.83;;;6.87;;
16640;SDS011;8434;47.990;7.880;2022-09-16T04:32:52;6.97;;;5.87;;
16640;SDS011;8434;47.990;7.880;2022-09-16T04:35:37;9.47;;;6.40;;
16640;SDS011;8434;47.990;7.880;2022-09-16T04:38:22;8.80;;;6.90;;
16640;SDS011;8434;47.990;7.880;2022-09-16T04:41:09;7.50;;;6.50;;
16640;SDS011;8434;47.990;7.880;2022-09-16T04:43:55;8.17;;;7.30;;
16640;SDS011;8434;47.990;7.880;2022-09-16T04:46:41;7.90;;;6.37;;
16640;SDS011;8434;47.990;7.880;2022-09-16T04:49:26;7.37;;;6.60;;
16640;SDS011;8434;47.990;7.880;2022-09-16T04:52:11;7.87;;;6.90;;
16640;SDS011;8434;47.990;7.880;2022-09-16T04:54:56;8.10;;;6.70;;
16640;SDS011;8434;47.990;7.880;2022-09-16T04:57:42;10.80;;;7.03;;
16640;SDS011;8434;47.990;7.880;2022-09-16T05:00:27;8.20;;;7.30;;
16640;SDS011;8434;47.990;7.880;2022-09-16T05:03:12;8.20;;;7.40;;
16640;SDS011;8434;47.990;7.880;2022-09-16T05:06:02;10.27;;;6.93;;
16640;SDS011;8434;47.990;7.880;2022-09-16T05:08:48;8.33;;;6.83;;
16640;SDS011;8434;47.990;7.880;2022-09-16T05:11:33;8.17;;;7.37;;
16640;SDS011;8434;47.990;7.880;2022-09-16T05:14:21;8.43;;;7.33;;
16640;SDS011;8434;47.990;7.880;2022-09-16T05:17:06;10.00;;;8.10;;
16640;SDS011;8434;47.990;7.880;2022-09-16T05:19:51;10.50;;;8.13;;
16640;SDS011;8434;47.990;7.880;2022-09-16T05:22:36;11.03;;;7.73;;
16640;SDS011;8434;47.990;7.880;2022-09-16T05:25:21;10.47;;;8.10;;
16640;SDS011;8434;47.990;7.880;2022-09-16T05:28:06;11.93;;;7.47;;
16640;SDS011;8434;47.990;7.880;2022-09-16T05:31:05;8.87;;;7.80;;
16640;SDS011;8434;47.990;7.880;2022-09-16T05:33:52;8.40;;;7.13;;
16640;SDS011;8434;47.990;7.880;2022-09-16T05:36:37;9.50;;;7.80;;
16640;SDS011;8434;47.990;7.880;2022-09-16T05:39:22;8.20;;;7.40;;
16640;SDS011;8434;47.990;7.880;2022-09-16T05:42:08;10.90;;;7.83;;
16640;SDS011;8434;47.990;7.880;2022-09-16T05:44:53;9.90;;;7.93;;
16640;SDS011;8434;47.990;7.880;2022-09-16T05:47:39;9.60;;;7.87;;
16640;SDS011;8434;47.990;7.880;2022-09-16T05:50:26;9.97;;;7.13;;
16640;SDS011;8434;47.990;7.880;2022-09-16T05:53:11;11.43;;;8.23;;
16640;SDS011;8434;47.990;7.880;2022-09-16T05:55:57;12.03;;;8.30;;
16640;SDS011;8434;47.990;7.880;2022-09-16T05:58:42;9.70;;;7.80;;
16640;SDS011;8434;47.990;7.880;2022-09-16T06:01:28;8.43;;;7.27;;
16640;SDS011;8434;47.990;7.880;2022-09-16T06:04:14;14.93;;;8.67;;
16640;SDS011;8434;47.990;7.880;2022-09-16T06:07:00;12.10;;;7.13;;
16640;SDS011;8434;47.990;7.880;2022-09-16T06:09:46;8.70;;;6.77;;
16640;SDS011;8434;47.990;7.880;2022-09-16T06:12:31;9.50;;;6.13;;
16640;SDS011;8434;47.990;7.880;2022-09-16T06:15:16;8.40;;;6.27;;
16640;SDS011;8434;47.990;7.880;2022-09-16T06:18:02;8.83;;;6.60;;
16640;SDS011;8434;47.990;7.880;2022-09-16T06:20:48;9.07;;;6.97;;
16640;SDS011;8434;47.990;7.880;2022-09-16T06:23:34;8.57;;;6.57;;
16640;SDS011;8434;47.990;7.880;2022-09-16T06:26:20;9.47;;;7.57;;
16640;SDS011;8434;47.990;7.880;2022-09-16T06:29:05;11.17;;;7.30;;
16640;SDS011;8434;47.990;7.880;2022-09-16T06:31:50;11.15;;;7.20;;
16640;SDS011;8434;47.990;7.880;2022-09-16T06:34:35;7.60;;;6.70;;
16640;SDS011;8434;47.990;7.880;2022-09-16T06:37:21;9.73;;;7.20;;
16640;SDS011;8434;47.990;7.880;2022-09-16T06:40:07;8.73;;;6.83;;
16640;SDS011;8434;47.990;7.880;2022-09-16T06:42:52;10.13;;;7.33;;
16640;SDS011;8434;47.990;7.880;2022-09-16T06:45:38;8.87;;;7.97;;
16640;SDS011;8434;47.990;7.880;2022-09-16T06:48:23;8.67;;;7.77;;
16640;SDS011;8434;47.990;7.880;2022-09-16T06:51:09;10.47;;;7.40;;
16640;SDS011;8434;47.990;7.880;2022-09-16T06:54:00;9.17;;;7.83;;
16640;SDS011;8434;47.990;7.880;2022-09-16T06:56:45;9.07;;;7.87;;
16640;SDS011;8434;47.990;7.880;2022-09-16T06:59:30;8.40;;;7.60;;
16640;SDS011;8434;47.990;7.880;2022-09-16T07:02:16;9.20;;;7.90;;
16640;SDS011;8434;47.990;7.880;2022-09-16T07:05:01;11.40;;;9.27;;
16640;SDS011;8434;47.990;7.880;2022-09-16T07:07:46;12.57;;;9.17;;
16640;SDS011;8434;47.990;7.880;2022-09-16T07:10:33;9.77;;;8.23;;
16640;SDS011;8434;47.990;7.880;2022-09-16T07:13:18;11.50;;;7.93;;
16640;SDS011;8434;47.990;7.880;2022-09-16T07:16:03;11.57;;;8.77;;
16640;SDS011;8434;47.990;7.880;2022-09-16T07:18:51;10.07;;;7.80;;
16640;SDS011;8434;47.990;7.880;2022-09-16T07:21:36;11.17;;;8.23;;
16640;SDS011;8434;47.990;7.880;2022-09-16T07:24:23;11.63;;;8.23;;
16640;SDS011;8434;47.990;7.880;2022-09-16T07:27:11;8.80;;;7.90;;
16640;SDS011;8434;47.990;7.880;2022-09-16T07:29:56;11.50;;;9.00;;
16640;SDS011;8434;47.990;7.880;2022-09-16T07:32:41;8.40;;;6.70;;
16640;SDS011;8434;47.990;7.880;2022-09-16T07:35:26;6.63;;;5.97;;
16640;SDS011;8434;47.990;7.880;2022-09-16T07:38:11;9.23;;;8.23;;
16640;SDS011;8434;47.990;7.880;2022-09-16T07:41:02;10.90;;;8.93;;
16640;SDS011;8434;47.990;7.880;2022-09-16T07:43:49;10.30;;;8.63;;
16640;SDS011;8434;47.990;7.880;2022-09-16T07:46:34;9.33;;;7.97;;
16640;SDS011;8434;47.990;7.880;2022-09-16T07:49:20;12.03;;;10.70;;
16640;SDS011;8434;47.990;7.880;2022-09-16T07:52:05;13.40;;;11.33;;
16640;SDS011;8434;47.990;7.880;2022-09-16T07:54:50;12.93;;;10.97;;
16640;SDS011;8434;47.990;7.880;2022-09-16T07:57:35;15.67;;;11.10;;
16640;SDS011;8434;47.990;7.880;2022-09-16T08:00:21;11.67;;;10.53;;
16640;SDS011;8434;47.990;7.880;2022-09-16T08:03:06;13.43;;;11.10;;
16640;SDS011;8434;47.990;7.880;2022-09-16T08:05:52;15.23;;;11.80;;
16640;SDS011;8434;47.990;7.880;2022-09-16T08:08:42;13.47;;;9.67;;
16640;SDS011;8434;47.990;7.880;2022-09-16T08:11:28;12.37;;;8.60;;
16640;SDS011;8434;47.990;7.880;2022-09-16T08:14:13;8.90;;;7.97;;
16640;SDS011;8434;47.990;7.880;2022-09-16T08:16:59;7.40;;;6.70;;
16640;SDS011;8434;47.990;7.880;2022-09-16T08:19:45;8.03;;;7.17;;
16640;SDS011;8434;47.990;7.880;2022-09-16T08:22:30;6.37;;;5.60;;
16640;SDS011;8434;47.990;7.880;2022-09-16T08:25:15;5.70;;;5.20;;
16640;SDS011;8434;47.990;7.880;2022-09-16T08:28:03;7.47;;;6.00;;
16640;SDS011;8434;47.990;7.880;2022-09-16T08:30:48;5.20;;;3.97;;
16640;SDS011;8434;47.990;7.880;2022-09-16T08:33:34;4.47;;;3.83;;
16640;SDS011;8434;47.990;7.880;2022-09-16T08:36:20;4.70;;;4.23;;
16640;SDS011;8434;47.990;7.880;2022-09-16T08:39:08;4.50;;;4.10;;
16640;SDS011;8434;47.990;7.880;2022-09-16T08:42:00;3.63;;;3.33;;
16640;SDS011;8434;47.990;7.880;2022-09-16T08:44:50;3.33;;;3.03;;
16640;SDS011;8434;47.990;7.880;2022-09-16T08:47:47;3.17;;;2.70;;
16640;SDS011;8434;47.990;7.880;2022-09-16T08:50:36;6.17;;;4.00;;
16640;SDS011;8434;47.990;7.880;2022-09-16T08:53:24;3.77;;;3.00;;
16640;SDS011;8434;47.990;7.880;2022-09-16T08:56:13;2.80;;;2.60;;
16640;SDS011;8434;47.990;7.880;2022-09-16T08:58:59;2.60;;;2.40;;
16640;SDS011;8434;47.990;7.880;2022-09-16T09:01:46;3.10;;;2.70;;
16640;SDS011;8434;47.990;7.880;2022-09-16T09:04:33;2.50;;;2.30;;
16640;SDS011;8434;47.990;7.880;2022-09-16T09:07:22;2.50;;;2.30;;
16640;SDS011;8434;47.990;7.880;2022-09-16T09:10:09;2.70;;;2.17;;
16640;SDS011;8434;47.990;7.880;2022-09-16T09:12:58;3.03;;;2.83;;
16640;SDS011;8434;47.990;7.880;2022-09-16T09:15:47;5.00;;;2.10;;
16640;SDS011;8434;47.990;7.880;2022-09-16T09:18:37;2.40;;;2.17;;
16640;SDS011;8434;47.990;7.880;2022-09-16T09:21:25;2.63;;;2.20;;
16640;SDS011;8434;47.990;7.880;2022-09-16T09:24:33;2.30;;;2.00;;
16640;SDS011;8434;47.990;7.880;2022-09-16T09:27:22;1.77;;;1.67;;
16640;SDS011;8434;47.990;7.880;2022-09-16T09:30:09;1.73;;;1.63;;
16640;SDS011;8434;47.990;7.880;2022-09-16T09:33:03;3.63;;;2.40;;
16640;SDS011;8434;47.990;7.880;2022-09-16T09:35:54;3.90;;;2.20;;
16640;SDS011;8434;47.990;7.880;2022-09-16T09:38:52;1.80;;;1.70;;
16640;SDS011;8434;47.990;7.880;2022-09-16T09:41:46;2.53;;;1.60;;
16640;SDS011;8434;47.990;7.880;2022-09-16T09:44:35;2.20;;;1.50;;
16640;SDS011;8434;47.990;7.880;2022-09-16T09:47:22;2.27;;;1.47;;
16640;SDS011;8434;47.990;7.880;2022-09-16T09:50:12;3.80;;;1.80;;
16640;SDS011;8434;47.990;7.880;2022-09-16T09:53:01;2.50;;;1.97;;
16640;SDS011;8434;47.990;7.880;2022-09-16T09:55:50;3.13;;;1.97;;
16640;SDS011;8434;47.990;7.880;2022-09-16T09:58:39;3.27;;;2.00;;
16640;SDS011;8434;47.990;7.880;2022-09-16T10:01:26;3.07;;;2.10;;
16640;SDS011;8434;47.990;7.880;2022-09-16T10:04:11;2.07;;;1.90;;
16640;SDS011;8434;47.990;7.880;2022-09-16T10:06:58;1.80;;;1.70;;
16640;SDS011;8434;47.990;7.880;2022-09-16T10:09:45;2.63;;;2.00;;
16640;SDS011;8434;47.990;7.880;2022-09-16T10:12:31;2.10;;;1.90;;
16640;SDS011;8434;47.990;7.880;2022-09-16T10:15:20;3.50;;;2.40;;
16640;SDS011;8434;47.990;7.880;2022-09-16T10:18:09;2.97;;;2.30;;
16640;SDS011;8434;47.990;7.880;2022-09-16T10:21:00;2.57;;;1.73;;
16640;SDS011;8434;47.990;7.880;2022-09-16T10:23:54;3.83;;;1.90;;
16640;SDS011;8434;47.990;7.880;2022-09-16T10:26:40;3.67;;;2.50;;
16640;SDS011;8434;47.990;7.880;2022-09-16T10:29:24;2.23;;;2.00;;
16640;SDS011;8434;47.990;7.880;2022-09-16T10:32:11;2.63;;;1.80;;
16640;SDS011;8434;47.990;7.880;2022-09-16T10:35:04;3.50;;;1.80;;
16640;SDS011;8434;47.990;7.880;2022-09-16T10:37:51;2.43;;;1.90;;
16640;SDS011;8434;47.990;7.880;2022-09-16T10:40:37;2.00;;;1.77;;
16640;SDS011;8434;47.990;7.880;2022-09-16T10:43:22;3.83;;;2.00;;
16640;SDS011;8434;47.990;7.880;2022-09-16T10:46:07;1.83;;;1.60;;
16640;SDS011;8434;47.990;7.880;2022-09-16T10:49:00;1.80;;;1.70;;
16640;SDS011;8434;47.990;7.880;2022-09-16T10:51:46;3.83;;;2.17;;
16640;SDS011;8434;47.990;7.880;2022-09-16T10:54:31;2.33;;;2.13;;
16640;SDS011;8434;47.990;7.880;2022-09-16T10:57:26;2.10;;;1.90;;
16640;SDS011;8434;47.990;7.880;2022-09-16T11:00:12;2.80;;;2.57;;
16640;SDS011;8434;47.990;7.880;2022-09-16T11:06:13;4.80;;;2.03;;
16640;SDS011;8434;47.990;7.880;2022-09-16T11:09:05;2.47;;;2.13;;
16640;SDS011;8434;47.990;7.880;2022-09-16T11:11:57;3.80;;;2.50;;
16640;SDS011;8434;47.990;7.880;2022-09-16T11:14:44;3.23;;;2.90;;
16640;SDS011;8434;47.990;7.880;2022-09-16T11:17:35;2.63;;;2.43;;
16640;SDS011;8434;47.990;7.880;2022-09-16T11:20:29;5.10;;;3.00;;
16640;SDS011;8434;47.990;7.880;2022-09-16T11:23:21;4.30;;;2.80;;
16640;SDS011;8434;47.990;7.880;2022-09-16T11:26:11;3.23;;;2.60;;
16640;SDS011;8434;47.990;7.880;2022-09-16T11:29:05;3.97;;;2.67;;
16640;SDS011;8434;47.990;7.880;2022-09-16T11:31:56;6.13;;;2.60;;
16640;SDS011;8434;47.990;7.880;2022-09-16T11:34:46;3.97;;;2.67;;
16640;SDS011;8434;47.990;7.880;2022-09-16T11:37:35;5.50;;;3.10;;
16640;SDS011;8434;47.990;7.880;2022-09-16T11:40:26;3.13;;;2.83;;
16640;SDS011;8434;47.990;7.880;2022-09-16T11:43:19;4.93;;;3.20;;
16640;SDS011;8434;47.990;7.880;2022-09-16T11:46:08;3.97;;;3.17;;
16640;SDS011;8434;47.990;7.880;2022-09-16T11:49:00;3.57;;;3.20;;
16640;SDS011;8434;47.990;7.880;2022-09-16T11:51:55;2.73;;;2.40;;
16640;SDS011;8434;47.990;7.880;2022-09-16T11:54:45;2.50;;;2.30;;
16640;SDS011;8434;47.990;7.880;2022-09-16T11:57:36;2.47;;;2.27;;
16640;SDS011;8434;47.990;7.880;2022-09-16T12:00:21;7.10;;;3.50;;
16640;SDS011;8434;47.990;7.880;2022-09-16T12:03:08;3.10;;;2.77;;
16640;SDS011;8434;47.990;7.880;2022-09-16T12:05:57;3.20;;;3.00;;
16640;SDS011;8434;47.990;7.880;2022-09-16T12:08:52;3.60;;;3.00;;
16640;SDS011;8434;47.990;7.880;2022-09-16T12:11:38;4.43;;;3.20;;
16640;SDS011;8434;47.990;7.880;2022-09-16T12:14:27;3.17;;;2.73;;
16640;SDS011;8434;47.990;7.880;2022-09-16T12:17:16;4.43;;;3.40;;
16640;SDS011;8434;47.990;7.880;2022-09-16T12:20:04;4.03;;;3.30;;
16640;SDS011;8434;47.990;7.880;2022-09-16T12:22:54;5.30;;;3.83;;
16640;SDS011;8434;47.990;7.880;2022-09-16T12:25:42;4.47;;;4.07;;
16640;SDS011;8434;47.990;7.880;2022-09-16T12:28:30;6.30;;;3.27;;
16640;SDS011;8434;47.990;7.880;2022-09-16T12:31:19;8.90;;;4.07;;
16640;SDS011;8434;47.990;7.880;2022-09-16T12:34:20;4.27;;;3.77;;
16640;SDS011;8434;47.990;7.880;2022-09-16T12:37:10;8.20;;;4.93;;
16640;SDS011;8434;47.990;7.880;2022-09-16T12:39:58;6.13;;;5.53;;
16640;SDS011;8434;47.990;7.880;2022-09-16T12:46:05;6.17;;;3.60;;
16640;SDS011;8434;47.990;7.880;2022-09-16T12:55:04;6.67;;;4.10;;
16640;SDS011;8434;47.990;7.880;2022-09-16T12:58:06;3.90;;;3.57;;
16640;SDS011;8434;47.990;7.880;2022-09-16T13:01:00;4.10;;;3.40;;
16640;SDS011;8434;47.990;7.880;2022-09-16T13:03:50;4.00;;;3.70;;
16640;SDS011;8434;47.990;7.880;2022-09-16T13:06:37;6.73;;;3.77;;
16640;SDS011;8434;47.990;7.880;2022-09-16T13:09:24;6.40;;;3.60;;
16640;SDS011;8434;47.990;7.880;2022-09-16T13:12:17;6.20;;;4.53;;
16640;SDS011;8434;47.990;7.880;2022-09-16T13:15:04;4.67;;;3.63;;
16640;SDS011;8434;47.990;7.880;2022-09-16T13:17:49;5.30;;;3.37;;
16640;SDS011;8434;47.990;7.880;2022-09-16T13:20:36;5.07;;;3.80;;
16640;SDS011;8434;47.990;7.880;2022-09-16T13:23:26;6.30;;;4.13;;
16640;SDS011;8434;47.990;7.880;2022-09-16T13:26:15;5.77;;;3.97;;
16640;SDS011;8434;47.990;7.880;2022-09-16T13:29:01;8.43;;;4.57;;
16640;SDS011;8434;47.990;7.880;2022-09-16T13:31:47;7.13;;;4.40;;
16640;SDS011;8434;47.990;7.880;2022-09-16T13:34:32;5.10;;;4.00;;
16640;SDS011;8434;47.990;7.880;2022-09-16T13:37:21;5.93;;;3.90;;
16640;SDS011;8434;47.990;7.880;2022-09-16T13:40:08;4.13;;;3.77;;
16640;SDS011;8434;47.990;7.880;2022-09-16T13:43:02;4.23;;;3.87;;
16640;SDS011;8434;47.990;7.880;2022-09-16T13:45:49;4.37;;;3.97;;
16640;SDS011;8434;47.990;7.880;2022-09-16T13:48:44;5.83;;;3.60;;
16640;SDS011;8434;47.990;7.880;2022-09-16T13:51:37;5.70;;;3.77;;
16640;SDS011;8434;47.990;7.880;2022-09-16T13:54:26;5.87;;;4.20;;
16640;SDS011;8434;47.990;7.880;2022-09-16T13:57:15;6.27;;;4.27;;
16640;SDS011;8434;47.990;7.880;2022-09-16T14:00:09;5.40;;;4.27;;
16640;SDS011;8434;47.990;7.880;2022-09-16T14:03:19;4.17;;;3.80;;
16640;SDS011;8434;47.990;7.880;2022-09-16T14:06:11;5.87;;;5.27;;
16640;SDS011;8434;47.990;7.880;2022-09-16T14:09:00;5.17;;;4.60;;
16640;SDS011;8434;47.990;7.880;2022-09-16T14:11:48;5.17;;;3.97;;
16640;SDS011;8434;47.990;7.880;2022-09-16T14:14:36;4.77;;;3.97;;
16640;SDS011;8434;47.990;7.880;2022-09-16T14:17:22;5.03;;;4.10;;
16640;SDS011;8434;47.990;7.880;2022-09-16T14:20:12;5.80;;;3.70;;
16640;SDS011;8434;47.990;7.880;2022-09-16T14:23:00;4.20;;;3.87;;
16640;SDS011;8434;47.990;7.880;2022-09-16T14:25:46;5.37;;;4.00;;
16640;SDS011;8434;47.990;7.880;2022-09-16T14:28:31;6.63;;;4.50;;
16640;SDS011;8434;47.990;7.880;2022-09-16T14:31:16;5.87;;;4.70;;
16640;SDS011;8434;47.990;7.880;2022-09-16T14:34:04;5.07;;;4.50;;
16640;SDS011;8434;47.990;7.880;2022-09-16T14:36:53;6.47;;;4.57;;
16640;SDS011;8434;47.990;7.880;2022-09-16T14:39:38;9.80;;;6.37;;
16640;SDS011;8434;47.990;7.880;2022-09-16T14:42:24;5.53;;;5.03;;
16640;SDS011;8434;47.990;7.880;2022-09-16T14:45:12;9.13;;;5.37;;
16640;SDS011;8434;47.990;7.880;2022-09-16T14:47:59;6.57;;;5.50;;
16640;SDS011;8434;47.990;7.880;2022-09-16T14:50:46;7.23;;;4.90;;
16640;SDS011;8434;47.990;7.880;2022-09-16T14:53:34;7.90;;;4.07;;
16640;SDS011;8434;47.990;7.880;2022-09-16T14:56:19;4.87;;;4.37;;
16640;SDS011;8434;47.990;7.880;2022-09-16T14:59:04;5.43;;;4.47;;
16640;SDS011;8434;47.990;7.880;2022-09-16T15:01:51;6.23;;;4.10;;
16640;SDS011;8434;47.990;7.880;2022-09-16T15:04:36;5.77;;;3.90;;
16640;SDS011;8434;47.990;7.880;2022-09-16T15:07:23;5.27;;;3.97;;
16640;SDS011;8434;47.990;7.880;2022-09-16T15:10:21;6.03;;;4.90;;
16640;SDS011;8434;47.990;7.880;2022-09-16T15:13:08;5.23;;;3.60;;
16640;SDS011;8434;47.990;7.880;2022-09-16T15:15:54;4.73;;;4.27;;
16640;SDS011;8434;47.990;7.880;2022-09-16T15:18:41;5.77;;;4.07;;
16640;SDS011;8434;47.990;7.880;2022-09-16T15:21:27;4.90;;;4.40;;
16640;SDS011;8434;47.990;7.880;2022-09-16T15:24:15;6.20;;;5.00;;
16640;SDS011;8434;47.990;7.880;2022-09-16T15:27:03;6.90;;;4.43;;
16640;SDS011;8434;47.990;7.880;2022-09-16T15:29:51;6.10;;;4.00;;
16640;SDS011;8434;47.990;7.880;2022-09-16T15:32:42;5.27;;;4.43;;
16640;SDS011;8434;47.990;7.880;2022-09-16T15:35:28;5.40;;;4.13;;
16640;SDS011;8434;47.990;7.880;2022-09-16T15:38:18;6.93;;;4.60;;
16640;SDS011;8434;47.990;7.880;2022-09-16T15:41:04;5.30;;;4.43;;
16640;SDS011;8434;47.990;7.880;2022-09-16T15:43:51;5.83;;;4.67;;
16640;SDS011;8434;47.990;7.880;2022-09-16T15:46:36;6.67;;;4.73;;
16640;SDS011;8434;47.990;7.880;2022-09-16T15:49:21;8.40;;;5.27;;
16640;SDS011;8434;47.990;7.880;2022-09-16T15:52:08;9.13;;;4.60;;
16640;SDS011;8434;47.990;7.880;2022-09-16T15:54:54;6.07;;;4.37;;
16640;SDS011;8434;47.990;7.880;2022-09-16T15:57:42;9.27;;;4.50;;
16640;SDS011;8434;47.990;7.880;2022-09-16T16:00:29;5.67;;;4.97;;
16640;SDS011;8434;47.990;7.880;2022-09-16T16:03:36;6.20;;;4.37;;
16640;SDS011;8434;47.990;7.880;2022-09-16T16:12:29;5.50;;;4.70;;
16640;SDS011;8434;47.990;7.880;2022-09-16T16:15:15;6.47;;;4.50;;
16640;SDS011;8434;47.990;7.880;2022-09-16T16:18:04;5.80;;;4.23;;
16640;SDS011;8434;47.990;7.880;2022-09-16T16:20:49;6.13;;;4.60;;
16640;SDS011;8434;47.990;7.880;2022-09-16T16:23:34;8.60;;;5.07;;
16640;SDS011;8434;47.990;7.880;2022-09-16T16:26:20;6.93;;;4.83;;
16640;SDS011;8434;47.990;7.880;2022-09-16T16:29:05;7.13;;;4.70;;
16640;SDS011;8434;47.990;7.880;2022-09-16T16:31:59;5.80;;;5.20;;
16640;SDS011;8434;47.990;7.880;2022-09-16T16:34:47;5.57;;;4.50;;
16640;SDS011;8434;47.990;7.880;2022-09-16T16:37:32;5.53;;;4.80;;
16640;SDS011;8434;47.990;7.880;2022-09-16T16:40:17;5.10;;;4.57;;
16640;SDS011;8434;47.990;7.880;2022-09-16T16:43:02;4.63;;;4.23;;
16640;SDS011;8434;47.990;7.880;2022-09-16T16:45:52;4.90;;;4.40;;
16640;SDS011;8434;47.990;7.880;2022-09-16T16:48:37;5.50;;;4.97;;
16640;SDS011;8434;47.990;7.880;2022-09-16T16:51:24;5.87;;;4.17;;
16640;SDS011;8434;47.990;7.880;2022-09-16T16:54:09;9.30;;;5.10;;
16640;SDS011;8434;47.990;7.880;2022-09-16T16:56:57;6.03;;;5.10;;
16640;SDS011;8434;47.990;7.880;2022-09-16T16:59:42;4.93;;;4.10;;
16640;SDS011;8434;47.990;7.880;2022-09-16T17:02:27;5.80;;;4.20;;
16640;SDS011;8434;47.990;7.880;2022-09-16T17:05:12;4.50;;;4.07;;
16640;SDS011;8434;47.990;7.880;2022-09-16T17:07:58;3.83;;;3.53;;
16640;SDS011;8434;47.990;7.880;2022-09-16T17:10:43;4.80;;;4.27;;
16640;SDS011;8434;47.990;7.880;2022-09-16T17:13:29;5.27;;;4.67;;
16640;SDS011;8434;47.990;7.880;2022-09-16T17:16:15;6.83;;;4.43;;
16640;SDS011;8434;47.990;7.880;2022-09-16T17:19:00;4.90;;;4.40;;
16640;SDS011;8434;47.990;7.880;2022-09-16T17:21:46;6.97;;;4.33;;
16640;SDS011;8434;47.990;7.880;2022-09-16T17:24:33;5.30;;;4.00;;
16640;SDS011;8434;47.990;7.880;2022-09-16T17:27:19;5.73;;;4.40;;
16640;SDS011;8434;47.990;7.880;2022-09-16T17:30:07;4.90;;;4.50;;
16640;SDS011;8434;47.990;7.880;2022-09-16T17:32:52;6.07;;;4.60;;
16640;SDS011;8434;47.990;7.880;2022-09-16T17:35:38;8.27;;;4.83;;
16640;SDS011;8434;47.990;7.880;2022-09-16T17:38:23;6.37;;;4.90;;
16640;SDS011;8434;47.990;7.880;2022-09-16T17:41:09;5.97;;;4.40;;